Time;durP1;ratioP1;P1;durP2;ratioP2;P2;SDS_P1;SDS_P2;PMS_P1;PMS_P2;Temp;Humidity;BMP_temperature;BMP_pressure;BME280_temperature;BME280_humidity;BME280_pressure;Samples;Min_cycle;Max_cycle;Signal;HPM_P1;HPM_P2
2023/01/20 00:00:44;;;;;;;16.92;11.07;;;;;;;2.47;70.74;100110.63;4117003;28;20053;-70
2023/01/20 00:02:47;;;;;;;14.73;9.65;;;;;;;2.46;70.97;100119.13;4100758;28;20055;-69
2023/01/20 00:04:51;;;;;;;16.80;10.75;;;;;;;2.47;70.70;100114.84;4113965;28;20111;-70
2023/01/20 00:06:54;;;;;;;14.95;9.95;;;;;;;2.45;71.06;100114.78;4125198;28;20081;-70
2023/01/20 00:08:59;;;;;;;18.15;10.88;;;;;;;2.44;70.39;100113.94;4119598;28;20043;-70
2023/01/20 00:11:04;;;;;;;16.88;9.85;;;;;;;2.41;70.46;100118.03;4114728;28;20071;-70
2023/01/20 00:13:07;;;;;;;16.42;10.25;;;;;;;2.37;70.92;100121.31;4094624;28;20461;-69
2023/01/20 00:15:11;;;;;;;18.75;11.45;;;;;;;2.38;70.70;100125.63;4120180;28;20065;-69
2023/01/20 00:17:14;;;;;;;15.10;10.15;;;;;;;2.37;70.94;100121.31;4118468;28;20128;-70
2023/01/20 00:19:17;;;;;;;17.50;10.82;;;;;;;2.37;70.64;100132.44;4126120;28;20042;-70
2023/01/20 00:21:22;;;;;;;14.85;10.23;;;;;;;2.37;70.91;100129.88;4117503;28;20081;-70
2023/01/20 00:23:25;;;;;;;15.32;10.82;;;;;;;2.36;70.89;100135.81;4111389;28;20137;-69
2023/01/20 00:25:28;;;;;;;19.08;11.45;;;;;;;2.35;70.82;100128.97;4117943;28;20070;-69
2023/01/20 00:27:31;;;;;;;15.65;10.10;;;;;;;2.34;71.46;100132.31;4121428;28;20038;-70
2023/01/20 00:29:34;;;;;;;15.85;11.13;;;;;;;2.33;70.73;100138.25;4124642;28;20133;-69
2023/01/20 00:31:37;;;;;;;20.23;12.23;;;;;;;2.32;70.81;100139.06;4135390;28;20507;-70
2023/01/20 00:33:40;;;;;;;20.15;10.88;;;;;;;2.33;70.94;100143.38;4115772;28;20090;-69
2023/01/20 00:35:43;;;;;;;18.58;10.77;;;;;;;2.33;70.65;100139.94;4100216;28;20433;-70
2023/01/20 00:37:47;;;;;;;19.40;11.13;;;;;;;2.35;71.08;100141.78;4119604;28;20493;-70
2023/01/20 00:39:50;;;;;;;14.68;10.20;;;;;;;2.35;71.04;100148.56;4113348;28;20488;-70
2023/01/20 00:41:52;;;;;;;15.25;10.38;;;;;;;2.30;71.11;100161.22;4114649;28;20042;-70
2023/01/20 00:43:55;;;;;;;16.38;11.15;;;;;;;2.30;71.46;100148.38;4126747;28;20069;-69
2023/01/20 00:45:58;;;;;;;17.33;11.75;;;;;;;2.30;71.30;100156.09;4115047;28;20102;-69
2023/01/20 00:48:01;;;;;;;17.20;10.30;;;;;;;2.32;71.48;100159.56;4116240;28;20045;-70
2023/01/20 00:50:05;;;;;;;15.57;10.10;;;;;;;2.29;71.09;100156.88;4121911;28;20063;-70
2023/01/20 00:52:08;;;;;;;18.38;11.15;;;;;;;2.27;71.11;100161.94;4121954;28;20098;-70
2023/01/20 00:54:12;;;;;;;15.93;11.40;;;;;;;2.31;71.78;100162.97;4120846;28;20462;-70
2023/01/20 00:56:15;;;;;;;18.95;11.07;;;;;;;2.28;72.21;100162.84;4112437;28;20042;-70
2023/01/20 00:58:18;;;;;;;14.65;10.65;;;;;;;2.25;71.95;100167.84;4115091;28;20427;-70
2023/01/20 01:00:21;;;;;;;16.08;10.55;;;;;;;2.23;71.37;100166.88;4120048;28;20162;-70
2023/01/20 01:02:24;;;;;;;23.17;10.77;;;;;;;2.21;71.78;100179.66;4120558;28;20038;-70
2023/01/20 01:04:26;;;;;;;18.83;10.63;;;;;;;2.16;72.22;100185.38;4120350;28;20038;-70
2023/01/20 01:06:29;;;;;;;17.00;9.75;;;;;;;2.17;71.72;100188.00;4122348;28;20101;-70
2023/01/20 01:08:33;;;;;;;20.95;11.90;;;;;;;2.18;71.97;100182.09;4114756;28;20453;-70
2023/01/20 01:10:38;;;;;;;16.63;11.02;;;;;;;2.18;71.14;100191.47;4118917;28;20039;-70
2023/01/20 01:12:40;;;;;;;17.50;9.60;;;;;;;2.17;72.06;100188.00;4122951;28;20038;-70
2023/01/20 01:14:43;;;;;;;19.95;10.05;;;;;;;2.19;71.66;100195.78;4125148;28;20404;-70
2023/01/20 01:16:46;;;;;;;14.30;9.60;;;;;;;2.19;71.23;100194.09;4128590;28;20520;-70
2023/01/20 01:18:49;;;;;;;16.90;9.73;;;;;;;2.18;71.98;100194.91;4115596;28;20038;-70
2023/01/20 01:20:52;;;;;;;15.57;9.75;;;;;;;2.16;71.38;100196.53;4116898;28;20191;-70
2023/01/20 01:22:55;;;;;;;14.30;10.35;;;;;;;2.17;71.53;100199.97;4103882;28;20043;-70
2023/01/20 01:24:58;;;;;;;15.25;10.30;;;;;;;2.17;71.29;100205.97;4116591;28;20386;-70
2023/01/20 01:27:03;;;;;;;15.73;9.98;;;;;;;2.21;71.52;100207.00;4127764;28;20546;-70
2023/01/20 01:29:06;;;;;;;14.25;9.20;;;;;;;2.20;71.79;100207.78;4121229;28;20050;-71
2023/01/20 01:31:09;;;;;;;14.55;10.38;;;;;;;2.21;71.15;100214.69;4118306;28;20047;-70
2023/01/20 01:33:12;;;;;;;13.18;9.45;;;;;;;2.23;71.28;100210.50;4119371;28;20093;-70
2023/01/20 01:35:15;;;;;;;17.60;10.20;;;;;;;2.22;71.96;100213.84;4120370;28;20421;-70
2023/01/20 01:37:18;;;;;;;14.00;9.65;;;;;;;2.23;71.89;100216.53;4123944;28;20125;-70
2023/01/20 01:39:22;;;;;;;16.27;10.25;;;;;;;2.23;71.80;100216.53;4124320;28;20043;-70
2023/01/20 01:41:25;;;;;;;14.05;9.60;;;;;;;2.23;71.74;100220.75;4115695;28;20457;-70
2023/01/20 01:43:31;;;;;;;15.43;9.85;;;;;;;2.24;70.98;100222.50;4118752;28;20460;-70
2023/01/20 01:45:34;;;;;;;16.58;9.40;;;;;;;2.23;71.37;100223.31;4120673;28;20046;-70
2023/01/20 01:47:40;;;;;;;14.18;9.57;;;;;;;2.24;71.28;100223.38;4115387;28;20085;-70
2023/01/20 01:49:44;;;;;;;16.50;9.68;;;;;;;2.26;71.81;100220.88;4118376;28;20046;-70
2023/01/20 01:51:51;;;;;;;14.97;9.43;;;;;;;2.29;71.57;100226.13;4113730;28;20042;-70
2023/01/20 01:53:58;;;;;;;12.77;9.18;;;;;;;2.30;71.70;100227.03;4115506;28;20045;-70
2023/01/20 01:56:03;;;;;;;16.10;10.13;;;;;;;2.27;71.69;100225.22;4121302;28;20037;-70
2023/01/20 01:58:08;;;;;;;14.10;9.82;;;;;;;2.24;71.89;100225.06;4112875;28;20038;-70
2023/01/20 02:00:13;;;;;;;14.77;9.63;;;;;;;2.19;71.65;100230.00;4114329;28;20409;-70
2023/01/20 02:02:17;;;;;;;16.38;8.55;;;;;;;2.21;72.34;100230.06;4110919;28;20051;-69
2023/01/20 02:04:28;;;;;;;16.80;9.48;;;;;;;2.24;71.92;100227.66;4116843;28;20042;-70
2023/01/20 02:06:32;;;;;;;;;;;;;;;2.18;72.38;100237.63;4126755;28;20034;-70
2023/01/20 02:08:36;;;;;;;19.35;10.88;;;;;;;2.17;71.91;100241.00;4120718;28;19926;-69
2023/01/20 02:10:38;;;;;;;16.02;9.82;;;;;;;2.20;71.82;100242.00;4127731;28;20042;-70
2023/01/20 02:12:46;;;;;;;14.23;10.10;;;;;;;2.22;71.90;100242.06;4118695;28;20077;-69
2023/01/20 02:14:52;;;;;;;14.52;9.32;;;;;;;2.23;71.69;100238.69;4118265;28;20042;-70
2023/01/20 02:17:04;;;;;;;18.25;9.70;;;;;;;2.25;71.94;100239.66;4120106;28;20149;-70
2023/01/20 02:19:25;;;;;;;15.45;9.85;;;;;;;2.25;71.90;100239.66;4126807;28;20042;-70
2023/01/20 02:22:04;;;;;;;18.50;9.45;;;;;;;2.24;71.82;100246.47;4110619;28;20050;-70
2023/01/20 02:24:36;;;;;;;13.18;9.52;;;;;;;2.24;72.40;100248.16;4115249;28;20042;-70
2023/01/20 02:26:53;;;;;;;15.32;9.55;;;;;;;2.25;72.14;100250.78;4117899;28;20043;-70
2023/01/20 02:29:41;;;;;;;16.70;9.50;;;;;;;2.25;71.60;100255.91;4119595;28;20074;-70
2023/01/20 02:32:09;;;;;;;15.27;9.60;;;;;;;2.21;72.09;100263.41;4111018;28;20078;-70
2023/01/20 02:34:16;;;;;;;15.07;9.00;;;;;;;2.16;72.11;100257.19;4125401;28;20034;-70
2023/01/20 02:36:27;;;;;;;13.57;9.13;;;;;;;2.15;71.72;100266.59;4129285;28;20042;-70
2023/01/20 02:38:41;;;;;;;14.48;8.73;;;;;;;2.16;71.85;100270.00;4124987;28;20513;-69
2023/01/20 02:40:53;;;;;;;14.27;9.40;;;;;;;2.15;72.08;100265.72;4119972;28;20066;-70
2023/01/20 02:43:05;;;;;;;16.48;9.60;;;;;;;2.14;72.08;100266.50;4119875;28;20074;-70
2023/01/20 02:45:15;;;;;;;14.55;9.68;;;;;;;2.12;71.96;100262.97;4123362;28;20150;-70
2023/01/20 02:47:27;;;;;;;15.93;10.60;;;;;;;2.14;71.72;100276.78;4124601;28;20129;-70
2023/01/20 02:49:34;;;;;;;15.18;9.23;;;;;;;2.16;71.69;100275.13;4128599;28;20030;-70
2023/01/20 02:51:42;;;;;;;15.40;10.40;;;;;;;2.17;71.60;100276.91;4126344;28;20481;-69
2023/01/20 02:53:50;;;;;;;14.25;9.48;;;;;;;2.16;72.05;100280.28;4119198;28;20070;-69
2023/01/20 02:55:54;;;;;;;15.20;9.55;;;;;;;2.15;72.11;100281.09;4118708;28;20089;-70
2023/01/20 02:58:03;;;;;;;13.73;9.23;;;;;;;2.13;71.94;100275.88;4123444;28;20146;-71
2023/01/20 03:00:13;;;;;;;13.80;9.43;;;;;;;2.11;71.89;100292.03;4126079;28;20038;-70
2023/01/20 03:02:23;;;;;;;13.88;8.02;;;;;;;2.09;71.88;100282.56;4122323;28;20236;-70
2023/01/20 03:04:30;;;;;;;16.50;9.57;;;;;;;2.11;71.75;100292.03;4127186;28;20110;-69
2023/01/20 03:06:37;;;;;;;12.25;8.75;;;;;;;2.07;71.62;100291.88;4120221;28;20049;-70
2023/01/20 03:08:40;;;;;;;15.88;8.80;;;;;;;2.07;71.62;100297.00;4119067;28;20041;-70
2023/01/20 03:10:46;;;;;;;14.45;9.98;;;;;;;2.07;71.78;100294.44;4126576;28;20039;-70
2023/01/20 03:12:53;;;;;;;14.20;9.23;;;;;;;2.06;72.04;100295.25;4119836;28;20069;-70
2023/01/20 03:14:56;;;;;;;12.63;8.43;;;;;;;2.03;71.51;100300.25;4130737;28;20046;-70
2023/01/20 03:16:59;;;;;;;14.43;8.48;;;;;;;2.03;72.31;100304.47;4130611;28;20507;-70
2023/01/20 03:19:04;;;;;;;13.00;8.13;;;;;;;2.09;71.62;100307.34;4118845;28;20109;-70
2023/01/20 03:21:08;;;;;;;12.93;8.32;;;;;;;2.11;71.39;100312.53;4121451;28;20130;-70
2023/01/20 03:23:11;;;;;;;13.25;8.50;;;;;;;2.05;71.44;100305.44;4122732;28;20038;-70
2023/01/20 03:25:14;;;;;;;12.23;7.90;;;;;;;1.93;71.77;100308.31;4123692;28;20043;-70
2023/01/20 03:27:18;;;;;;;14.93;8.50;;;;;;;1.78;72.12;100302.47;4126837;28;20463;-70
2023/01/20 03:29:20;;;;;;;12.45;8.15;;;;;;;1.66;72.62;100310.44;4130593;28;20034;-70
2023/01/20 03:31:29;;;;;;;14.80;9.57;;;;;;;1.69;73.16;100311.47;4117289;28;20035;-70
2023/01/20 03:33:33;;;;;;;15.40;8.85;;;;;;;1.76;72.90;100315.19;4115784;28;20034;-70
2023/01/20 03:35:38;;;;;;;12.30;8.70;;;;;;;1.79;73.03;100314.47;4117748;28;21454;-70
2023/01/20 03:37:41;;;;;;;12.57;8.63;;;;;;;1.79;72.47;100320.47;4104053;28;20047;-70
2023/01/20 03:39:44;;;;;;;12.38;8.57;;;;;;;1.85;72.09;100325.00;4121117;28;20042;-70
2023/01/20 03:41:59;;;;;;;15.23;8.48;;;;;;;1.90;72.17;100321.88;4118229;28;20054;-70
2023/01/20 03:44:11;;;;;;;11.93;8.63;;;;;;;1.93;72.03;100321.13;4114052;28;20125;-70
2023/01/20 03:46:23;;;;;;;13.75;9.02;;;;;;;1.97;72.20;100328.16;4118038;28;20471;-70
2023/01/20 03:48:34;;;;;;;14.75;9.10;;;;;;;1.97;71.93;100325.59;4128616;28;20037;-70
2023/01/20 03:50:44;;;;;;;17.92;9.68;;;;;;;1.96;72.00;100333.19;4139493;28;20034;-70
2023/01/20 03:52:52;;;;;;;14.70;9.98;;;;;;;1.94;71.70;100338.25;4121334;28;20050;-70
2023/01/20 03:55:01;;;;;;;11.98;8.30;;;;;;;1.94;71.68;100330.56;4117607;28;20415;-70
2023/01/20 03:57:11;;;;;;;12.52;8.88;;;;;;;1.94;72.19;100340.81;4115103;28;20041;-70
2023/01/20 03:59:15;;;;;;;13.48;8.60;;;;;;;1.91;71.63;100340.66;4119311;28;20034;-70
2023/01/20 04:01:22;;;;;;;16.33;9.25;;;;;;;1.90;71.81;100344.06;4134926;28;20089;-70
2023/01/20 04:03:29;;;;;;;14.90;9.07;;;;;;;1.88;72.10;100343.09;4118984;28;20042;-69
2023/01/20 04:05:33;;;;;;;14.27;8.43;;;;;;;1.86;71.55;100340.47;4127613;28;20377;-70
2023/01/20 04:07:40;;;;;;;13.40;8.82;;;;;;;1.82;72.05;100345.38;4126399;28;20039;-70
2023/01/20 04:09:47;;;;;;;17.08;10.38;;;;;;;1.77;72.18;100349.38;4120454;28;20405;-70
2023/01/20 04:11:51;;;;;;;15.05;9.25;;;;;;;1.74;72.24;100348.44;4117605;28;20047;-70
2023/01/20 04:13:54;;;;;;;14.20;9.57;;;;;;;1.71;72.38;100345.75;4118857;28;20405;-70
2023/01/20 04:15:59;;;;;;;15.30;10.25;;;;;;;1.66;72.35;100339.50;4121468;28;20405;-69
2023/01/20 04:18:13;;;;;;;19.95;10.30;;;;;;;1.65;72.19;100348.03;4122103;28;20042;-69
2023/01/20 04:20:16;;;;;;;15.65;10.27;;;;;;;1.64;72.36;100341.13;4128512;28;20044;-69
2023/01/20 04:22:24;;;;;;;18.02;10.77;;;;;;;1.64;72.16;100351.38;4106685;28;20134;-69
2023/01/20 04:24:34;;;;;;;14.90;9.75;;;;;;;1.63;72.31;100348.75;4112999;28;20043;-69
2023/01/20 04:26:37;;;;;;;14.13;10.10;;;;;;;1.59;72.37;100350.25;4119661;28;20344;-69
2023/01/20 04:28:39;;;;;;;14.13;9.48;;;;;;;1.56;72.33;100358.69;4103112;28;20090;-69
2023/01/20 04:30:42;;;;;;;16.75;9.02;;;;;;;1.52;72.15;100358.44;4124492;28;20046;-70
2023/01/20 04:32:45;;;;;;;18.40;10.50;;;;;;;1.49;72.18;100358.31;4127183;28;20038;-69
2023/01/20 04:34:50;;;;;;;16.60;9.50;;;;;;;1.48;72.21;100362.56;4127226;28;20053;-69
2023/01/20 04:36:53;;;;;;;15.00;9.43;;;;;;;1.44;72.30;100354.66;4107063;28;20039;-69
2023/01/20 04:38:56;;;;;;;15.82;10.60;;;;;;;1.49;71.93;100355.75;4116706;28;20394;-70
2023/01/20 04:41:00;;;;;;;15.85;9.60;;;;;;;1.48;72.03;100360.00;4112497;28;20138;-69
2023/01/20 04:43:05;;;;;;;15.90;10.35;;;;;;;1.47;72.01;100367.59;4118231;28;20062;-70
2023/01/20 04:45:13;;;;;;;14.13;10.15;;;;;;;1.45;72.05;100359.84;4119741;28;20063;-69
2023/01/20 04:47:17;;;;;;;16.63;9.70;;;;;;;1.42;72.55;100367.38;4108497;28;20066;-71
2023/01/20 04:49:19;;;;;;;14.77;10.70;;;;;;;1.36;72.49;100373.09;4111206;28;20066;-71
2023/01/20 04:51:22;;;;;;;14.40;9.60;;;;;;;1.37;72.30;100377.41;4116719;28;20038;-71
2023/01/20 04:53:25;;;;;;;17.50;9.77;;;;;;;1.31;72.65;100377.06;4112618;28;20047;-71
2023/01/20 04:55:28;;;;;;;13.65;10.05;;;;;;;1.28;72.67;100378.63;4116310;28;20192;-72
2023/01/20 04:57:32;;;;;;;17.52;11.32;;;;;;;1.27;72.58;100388.00;4107349;28;20062;-73
2023/01/20 04:59:35;;;;;;;16.25;10.48;;;;;;;1.25;72.69;100381.91;4128451;28;20034;-73
2023/01/20 05:01:38;;;;;;;17.58;10.45;;;;;;;1.24;72.85;100394.63;4116457;28;20094;-71
2023/01/20 05:03:41;;;;;;;16.63;10.48;;;;;;;1.19;72.81;100389.28;4111215;28;20050;-70
2023/01/20 05:05:43;;;;;;;17.85;11.40;;;;;;;1.15;72.76;100385.66;4118568;28;21509;-70
2023/01/20 05:07:46;;;;;;;16.65;10.85;;;;;;;1.13;72.93;100391.53;4122420;28;20089;-70
2023/01/20 05:09:49;;;;;;;15.30;11.05;;;;;;;1.11;73.10;100388.00;4110650;28;20061;-70
2023/01/20 05:11:52;;;;;;;17.42;11.35;;;;;;;1.12;73.00;100400.88;4107926;28;20046;-70
2023/01/20 05:13:56;;;;;;;18.08;10.82;;;;;;;1.15;73.03;100400.16;4112592;28;20061;-70
2023/01/20 05:15:59;;;;;;;16.83;10.60;;;;;;;1.14;72.93;100398.41;4117336;28;20057;-70
2023/01/20 05:18:04;;;;;;;16.55;11.07;;;;;;;1.10;72.78;100402.50;4118793;28;20046;-70
2023/01/20 05:20:09;;;;;;;23.48;8.35;;;;;;;1.22;74.25;100403.09;4108595;28;20042;-65
2023/01/20 05:22:12;;;;;;;14.40;8.98;;;;;;;2.35;79.32;100400.88;4119321;28;20511;-65
2023/01/20 05:24:15;;;;;;;17.75;9.57;;;;;;;3.18;78.72;100402.81;4108130;28;20402;-65
2023/01/20 05:26:18;;;;;;;17.65;10.25;;;;;;;3.66;76.00;100397.97;4115631;28;20412;-65
2023/01/20 05:28:21;;;;;;;15.40;10.32;;;;;;;3.89;72.68;100401.47;4118496;28;20042;-72
2023/01/20 05:30:25;;;;;;;18.02;11.07;;;;;;;3.58;68.61;100405.38;4123885;28;20042;-72
2023/01/20 05:32:28;;;;;;;16.30;11.50;;;;;;;3.07;68.29;100404.91;4117567;28;20042;-72
2023/01/20 05:35:17;;;;;;;20.25;11.23;;;;;;;2.60;68.61;100409.69;4113181;28;20441;-71
2023/01/20 05:37:23;;;;;;;16.20;10.93;;;;;;;2.16;69.67;100408.50;4111816;28;20034;-71
2023/01/20 05:39:25;;;;;;;17.65;10.13;;;;;;;1.93;70.48;100418.56;4104402;28;20051;-72
2023/01/20 05:41:28;;;;;;;16.75;11.30;;;;;;;1.78;70.74;100420.34;4112037;28;20047;-71
2023/01/20 05:43:31;;;;;;;15.68;10.70;;;;;;;1.64;70.54;100432.50;4106836;28;20090;-71
2023/01/20 05:45:35;;;;;;;15.63;10.25;;;;;;;1.53;71.13;100430.28;4117192;28;20501;-72
2023/01/20 05:47:38;;;;;;;15.52;11.02;;;;;;;1.39;71.03;100439.81;4119171;28;20101;-72
2023/01/20 05:49:41;;;;;;;17.15;11.48;;;;;;;1.29;71.81;100439.28;4108686;28;20042;-71
2023/01/20 05:51:44;;;;;;;15.10;11.23;;;;;;;1.22;72.02;100444.06;4113539;28;20042;-71
2023/01/20 05:53:47;;;;;;;16.00;11.20;;;;;;;1.17;71.99;100444.66;4110840;28;20124;-71
2023/01/20 05:55:50;;;;;;;18.33;10.82;;;;;;;1.14;72.17;100450.50;4106455;28;20528;-71
2023/01/20 05:57:52;;;;;;;14.20;9.80;;;;;;;1.13;72.45;100452.97;4114883;28;20045;-71
2023/01/20 05:59:55;;;;;;;13.93;8.80;;;;;;;1.13;72.22;100453.84;4115445;28;20038;-71
2023/01/20 06:01:59;;;;;;;13.75;9.20;;;;;;;1.16;72.25;100463.38;4110056;28;20051;-71
2023/01/20 06:04:05;;;;;;;13.98;10.02;;;;;;;1.17;72.15;100465.16;4114552;28;20520;-72
2023/01/20 06:06:13;;;;;;;16.00;9.15;;;;;;;1.14;72.41;100470.09;4120734;28;20138;-72
2023/01/20 06:08:15;;;;;;;16.33;11.00;;;;;;;1.10;72.23;100470.75;4114714;28;20053;-72
2023/01/20 06:10:18;;;;;;;20.77;10.80;;;;;;;1.06;72.58;100471.38;4118507;28;20535;-72
2023/01/20 06:12:21;;;;;;;15.55;10.80;;;;;;;1.11;72.51;100473.38;4125612;28;20543;-72
2023/01/20 06:14:24;;;;;;;17.23;10.05;;;;;;;1.10;72.23;100479.28;4127733;28;20105;-72
2023/01/20 06:16:28;;;;;;;18.17;11.60;;;;;;;1.01;72.46;100474.56;4117048;28;20405;-72
2023/01/20 06:18:33;;;;;;;14.95;11.10;;;;;;;0.94;72.86;100482.72;4114408;28;20144;-72
2023/01/20 06:20:36;;;;;;;15.68;11.10;;;;;;;0.91;72.87;100476.56;4117688;28;20047;-72
2023/01/20 06:22:39;;;;;;;15.20;11.13;;;;;;;0.91;73.01;100476.56;4117118;28;20118;-72
2023/01/20 06:24:42;;;;;;;16.23;10.15;;;;;;;0.86;73.09;100478.88;4120125;28;20042;-72
2023/01/20 06:26:44;;;;;;;16.13;11.18;;;;;;;0.88;72.88;100487.53;4111047;28;20414;-72
2023/01/20 06:28:47;;;;;;;17.98;10.80;;;;;;;0.84;72.93;100480.47;4106249;28;20043;-72
2023/01/20 06:30:50;;;;;;;18.77;10.75;;;;;;;0.85;73.00;100484.81;4112467;28;20039;-72
2023/01/20 06:32:53;;;;;;;17.98;11.20;;;;;;;0.82;73.35;100482.09;4111317;28;20066;-72
2023/01/20 06:34:58;;;;;;;14.55;10.43;;;;;;;0.85;73.13;100492.47;4113432;28;20404;-72
2023/01/20 06:37:01;;;;;;;16.98;11.30;;;;;;;0.80;72.97;100493.91;4113227;28;20137;-72
2023/01/20 06:39:04;;;;;;;16.48;10.20;;;;;;;0.82;73.29;100497.44;4114133;28;20050;-73
2023/01/20 06:41:10;;;;;;;17.13;10.88;;;;;;;0.80;73.72;100504.13;4115298;28;20453;-72
2023/01/20 06:43:13;;;;;;;16.50;11.13;;;;;;;0.83;73.49;100506.84;4116576;28;20040;-72
2023/01/20 06:45:16;;;;;;;16.10;11.18;;;;;;;0.85;73.35;100507.84;4121767;28;20117;-72
2023/01/20 06:47:20;;;;;;;17.67;10.88;;;;;;;0.85;73.53;100508.72;4120411;28;20050;-71
2023/01/20 06:49:23;;;;;;;15.55;10.20;;;;;;;0.82;73.62;100507.69;4121180;28;20042;-71
2023/01/20 06:51:29;;;;;;;18.58;12.75;;;;;;;0.84;73.45;100500.94;4118227;28;20070;-71
2023/01/20 06:53:32;;;;;;;16.52;10.68;;;;;;;0.85;73.74;100512.97;4122147;28;20045;-71
2023/01/20 06:55:35;;;;;;;15.20;10.23;;;;;;;0.85;73.47;100516.38;4117964;28;20039;-71
2023/01/20 06:57:38;;;;;;;15.95;10.70;;;;;;;0.86;73.74;100519.81;4122178;28;20038;-71
2023/01/20 06:59:40;;;;;;;14.27;10.52;;;;;;;0.83;73.49;100524.78;4126514;28;20081;-71
2023/01/20 07:01:43;;;;;;;16.42;10.98;;;;;;;0.80;73.88;100522.03;4122526;28;20050;-71
2023/01/20 07:03:46;;;;;;;18.88;10.73;;;;;;;0.83;73.96;100530.78;4131544;28;20042;-71
2023/01/20 07:05:56;;;;;;;19.05;11.57;;;;;;;0.83;73.33;100532.44;4106096;28;20098;-71
2023/01/20 07:08:03;;;;;;;21.67;11.88;;;;;;;0.78;73.10;100536.44;4113820;28;20035;-73
2023/01/20 07:10:06;;;;;;;19.98;12.23;;;;;;;0.74;73.34;100540.50;4114570;28;20035;-71
2023/01/20 07:12:09;;;;;;;16.77;11.40;;;;;;;0.72;73.58;100548.91;4121198;28;20406;-71
2023/01/20 07:14:12;;;;;;;18.27;12.35;;;;;;;0.71;73.46;100545.44;4122961;28;20100;-71
2023/01/20 07:16:15;;;;;;;18.70;10.75;;;;;;;0.69;73.53;100540.25;4115595;28;20093;-71
2023/01/20 07:18:18;;;;;;;17.00;10.77;;;;;;;0.72;73.56;100561.72;4105469;28;20035;-71
2023/01/20 07:20:21;;;;;;;13.93;10.35;;;;;;;0.72;73.74;100551.47;4122842;28;20423;-71
2023/01/20 07:22:24;;;;;;;14.63;11.00;;;;;;;0.74;73.45;100560.09;4110042;28;20484;-71
2023/01/20 07:24:28;;;;;;;17.23;11.48;;;;;;;0.75;74.11;100556.75;4115464;28;20051;-72
2023/01/20 07:26:31;;;;;;;17.13;11.50;;;;;;;0.72;73.94;100567.69;4118291;28;20546;-72
2023/01/20 07:28:35;;;;;;;12.60;7.22;;;;;;;1.03;75.23;100569.38;4120551;28;20038;-61
2023/01/20 07:30:38;;;;;;;16.05;10.57;;;;;;;2.62;81.12;100560.34;4118511;28;20055;-74
2023/01/20 07:32:41;;;;;;;15.15;9.23;;;;;;;2.88;78.17;100563.28;4120398;28;20038;-74
2023/01/20 07:34:43;;;;;;;14.23;10.98;;;;;;;2.57;73.59;100566.97;4123564;28;20042;-74
2023/01/20 07:36:46;;;;;;;16.67;10.80;;;;;;;2.19;72.24;100572.78;4111085;28;20097;-74
2023/01/20 07:38:51;;;;;;;15.68;10.32;;;;;;;1.86;72.00;100577.97;4096683;28;20036;-75
2023/01/20 07:41:02;;;;;;;15.02;10.10;;;;;;;1.63;72.51;100577.66;4102334;28;20043;-74
2023/01/20 07:43:08;;;;;;;15.77;10.80;;;;;;;1.43;72.31;100578.31;4111774;28;20069;-74
2023/01/20 07:45:14;;;;;;;15.90;11.38;;;;;;;1.32;72.79;100582.88;4112177;28;20097;-74
2023/01/20 07:47:21;;;;;;;14.18;9.75;;;;;;;1.21;73.09;100592.50;4113338;28;20046;-74
2023/01/20 07:49:24;;;;;;;14.77;10.45;;;;;;;1.16;73.03;100593.97;4105528;28;20046;-74
2023/01/20 07:51:27;;;;;;;14.85;9.65;;;;;;;1.06;73.38;100594.25;4131043;28;20125;-74
2023/01/20 07:53:31;;;;;;;18.27;10.88;;;;;;;0.99;73.03;100596.50;4112047;28;20043;-74
2023/01/20 07:55:34;;;;;;;16.48;11.88;;;;;;;0.93;73.29;100593.56;4120520;28;20061;-75
2023/01/20 07:57:38;;;;;;;16.80;10.82;;;;;;;0.91;73.35;100594.31;4116788;28;20035;-73
2023/01/20 07:59:41;;;;;;;15.25;10.85;;;;;;;0.88;73.59;100595.00;4113385;28;20442;-74
2023/01/20 08:01:44;;;;;;;18.02;11.45;;;;;;;0.86;73.68;100596.59;4109229;28;20035;-74
2023/01/20 08:03:47;;;;;;;16.00;10.82;;;;;;;0.85;73.75;100599.97;4108134;28;20081;-74
2023/01/20 08:05:50;;;;;;;16.83;11.80;;;;;;;0.85;73.74;100602.53;4109271;28;20166;-74
2023/01/20 08:07:53;;;;;;;19.08;11.25;;;;;;;0.84;73.57;100604.19;4110154;28;20047;-73
2023/01/20 08:09:57;;;;;;;16.30;11.07;;;;;;;0.86;73.73;100610.28;4111665;28;21016;-73
2023/01/20 08:12:01;;;;;;;16.98;11.73;;;;;;;0.88;73.75;100607.81;4091807;28;20039;-74
2023/01/20 08:14:05;;;;;;;17.65;11.77;;;;;;;0.93;73.67;100614.06;4108135;28;20047;-74
2023/01/20 08:16:10;;;;;;;14.68;11.02;;;;;;;0.95;73.86;100612.47;4108932;28;20043;-74
2023/01/20 08:18:13;;;;;;;18.25;11.80;;;;;;;0.93;73.53;100619.16;4110306;28;20053;-74
2023/01/20 08:20:16;;;;;;;20.67;12.43;;;;;;;0.91;74.05;100623.34;4110875;28;20058;-74
2023/01/20 08:22:21;;;;;;;22.58;13.30;;;;;;;0.94;73.94;100620.06;4109187;28;20047;-74
2023/01/20 08:24:24;;;;;;;18.80;13.68;;;;;;;0.95;73.99;100627.84;4107064;28;20098;-73
2023/01/20 08:26:29;;;;;;;20.67;14.75;;;;;;;0.96;74.07;100616.78;4094496;28;20059;-73
2023/01/20 08:28:33;;;;;;;20.15;14.02;;;;;;;0.98;74.30;100622.88;4107416;28;20047;-74
2023/01/20 08:30:40;;;;;;;19.83;13.32;;;;;;;1.01;74.32;100629.84;4110580;28;20042;-74
2023/01/20 08:32:43;;;;;;;18.23;14.18;;;;;;;1.02;74.80;100627.38;4120231;28;20038;-73
2023/01/20 08:34:46;;;;;;;20.42;13.48;;;;;;;1.05;74.22;100636.88;4106982;28;20046;-74
2023/01/20 08:36:52;;;;;;;18.10;13.05;;;;;;;1.11;74.18;100628.66;4108612;28;20506;-74
2023/01/20 08:38:55;;;;;;;21.73;14.30;;;;;;;1.12;74.35;100628.75;4108073;28;20071;-74
2023/01/20 08:41:01;;;;;;;23.50;15.23;;;;;;;1.14;74.69;100633.94;4106234;28;20450;-75
2023/01/20 08:43:05;;;;;;;21.13;14.93;;;;;;;1.17;74.59;100644.38;4108012;28;20042;-74
2023/01/20 08:45:11;;;;;;;25.30;14.15;;;;;;;1.19;74.56;100629.97;4095478;28;20041;-74
2023/01/20 08:47:16;;;;;;;19.10;12.73;;;;;;;1.23;74.31;100639.59;4109157;28;20062;-74
2023/01/20 08:49:20;;;;;;;21.42;14.07;;;;;;;1.25;74.30;100638.00;4107498;28;20031;-74
2023/01/20 08:51:26;;;;;;;19.85;13.07;;;;;;;1.26;74.71;100644.88;4096159;28;20366;-74
2023/01/20 08:53:29;;;;;;;16.15;11.82;;;;;;;1.27;74.81;100646.66;4103287;28;20044;-74
2023/01/20 08:55:32;;;;;;;23.13;15.15;;;;;;;1.31;74.77;100643.44;4110080;28;20043;-74
2023/01/20 08:57:35;;;;;;;19.90;14.55;;;;;;;1.42;74.32;100643.13;4110018;28;20046;-74
2023/01/20 08:59:38;;;;;;;21.50;13.95;;;;;;;1.34;74.77;100646.19;4106176;28;20058;-74
2023/01/20 09:01:42;;;;;;;26.98;16.65;;;;;;;1.39;74.86;100649.00;4113142;28;20035;-74
2023/01/20 09:03:48;;;;;;;21.05;13.38;;;;;;;1.33;74.88;100641.84;4113311;28;20039;-73
2023/01/20 09:06:12;;;;;;;24.08;15.18;;;;;;;1.38;74.53;100644.66;4110827;28;20046;-75
2023/01/20 09:08:27;;;;;;;20.08;14.38;;;;;;;1.38;74.90;100653.22;4092346;28;20055;-75
2023/01/20 09:10:32;;;;;;;23.98;15.93;;;;;;;1.42;75.02;100661.06;4126085;28;20058;-73
2023/01/20 09:12:36;;;;;;;;;;;;;;;1.42;75.02;100663.63;4110041;28;20045;-74
2023/01/20 09:14:39;;;;;;;19.00;13.13;;;;;;;1.31;75.16;100674.16;4110473;28;19930;-75
2023/01/20 09:16:42;;;;;;;21.92;13.82;;;;;;;1.42;75.56;100668.75;4107583;28;20741;-74
2023/01/20 09:18:45;;;;;;;22.10;16.20;;;;;;;1.32;75.49;100683.63;4102331;28;20090;-75
2023/01/20 09:20:49;;;;;;;23.65;14.23;;;;;;;1.29;75.53;100682.59;4110167;28;20054;-72
2023/01/20 09:22:53;;;;;;;18.55;14.00;;;;;;;1.25;75.62;100681.53;4092947;28;20477;-73
2023/01/20 09:24:56;;;;;;;21.30;13.63;;;;;;;1.19;75.20;100679.50;4110324;28;20463;-74
2023/01/20 09:27:00;;;;;;;20.07;13.30;;;;;;;1.17;75.33;100693.03;4087419;29;20669;-74
2023/01/20 09:29:07;;;;;;;19.40;12.90;;;;;;;1.17;75.22;100683.66;4111759;28;20293;-75
2023/01/20 09:31:12;;;;;;;16.02;12.38;;;;;;;1.26;75.59;100690.97;4110684;28;20030;-74
2023/01/20 09:33:15;;;;;;;21.25;13.48;;;;;;;1.30;75.65;100687.78;4124964;28;20026;-74
2023/01/20 09:35:18;;;;;;;20.00;14.75;;;;;;;1.40;74.85;100691.72;4127593;28;20034;-74
2023/01/20 09:44:53;;;;;;;18.15;12.38;;;;;;;1.71;74.13;100704.53;4103364;28;20035;-75